Time;durP1;ratioP1;P1;durP2;ratioP2;P2;SDS_P1;SDS_P2;PMS_P1;PMS_P2;Temp;Humidity;BMP_temperature;BMP_pressure;BME280_temperature;BME280_humidity;BME280_pressure;Samples;Min_cycle;Max_cycle;Signal;HPM_P1;HPM_P2
2021/05/29 00:00:09;;;;;;;3.58;3.05;;;10.10;99.90;;;;;;5045268;28;20033;-73
2021/05/29 00:02:36;;;;;;;;;;;10.20;99.90;;;;;;5049755;28;20044;-74
2021/05/29 00:05:04;;;;;;;4.05;2.72;;;10.30;99.90;;;;;;5042297;28;20389;-73
2021/05/29 00:07:32;;;;;;;4.43;3.00;;;10.30;99.90;;;;;;5037789;28;20049;-79
2021/05/29 00:09:59;;;;;;;3.47;2.90;;;10.20;99.90;;;;;;5032527;28;20050;-73
2021/05/29 00:12:25;;;;;;;4.35;2.60;;;10.20;99.90;;;;;;5030815;28;20414;-74
2021/05/29 00:14:53;;;;;;;5.00;2.85;;;10.10;99.90;;;;;;5037926;28;20050;-74
2021/05/29 00:17:19;;;;;;;3.95;3.10;;;10.00;99.90;;;;;;5042991;28;20372;-74
2021/05/29 00:19:46;;;;;;;4.45;3.13;;;9.70;99.90;;;;;;5049059;28;20045;-74
2021/05/29 00:22:12;;;;;;;5.78;2.95;;;9.70;99.90;;;;;;5032118;28;20068;-74
2021/05/29 00:24:38;;;;;;;3.80;3.08;;;9.80;99.90;;;;;;5050492;28;20469;-74
2021/05/29 00:27:05;;;;;;;5.93;3.17;;;9.90;99.90;;;;;;5050479;28;20060;-74
2021/05/29 00:29:31;;;;;;;5.13;3.35;;;10.00;99.90;;;;;;5038557;28;20049;-87
2021/05/29 00:31:57;;;;;;;4.20;3.28;;;9.90;99.90;;;;;;5051243;28;20049;-74
2021/05/29 00:34:24;;;;;;;4.60;3.03;;;10.00;99.90;;;;;;5046280;28;20475;-75
2021/05/29 00:36:50;;;;;;;3.97;3.17;;;9.90;99.90;;;;;;5031663;28;20049;-74
2021/05/29 00:39:17;;;;;;;3.85;3.30;;;9.80;99.90;;;;;;5039686;28;20033;-74
2021/05/29 00:41:43;;;;;;;4.90;3.33;;;9.60;99.90;;;;;;5050315;28;20041;-74
2021/05/29 00:44:13;;;;;;;5.57;3.45;;;9.50;99.90;;;;;;5051101;28;20044;-74
2021/05/29 00:46:39;;;;;;;4.05;3.65;;;9.40;99.90;;;;;;5035014;28;20041;-82
2021/05/29 00:49:05;;;;;;;4.05;2.72;;;9.40;99.90;;;;;;5032325;28;20073;-74
2021/05/29 00:51:32;;;;;;;6.63;3.53;;;9.40;99.90;;;;;;5047226;28;20041;-87
2021/05/29 00:53:58;;;;;;;5.60;3.30;;;9.40;99.90;;;;;;5041949;28;20053;-74
2021/05/29 00:56:25;;;;;;;7.50;3.75;;;9.30;99.90;;;;;;5032358;28;20132;-74
2021/05/29 00:58:51;;;;;;;4.35;3.30;;;9.30;99.90;;;;;;5040113;28;20040;-73
2021/05/29 01:01:17;;;;;;;6.20;3.63;;;9.30;99.90;;;;;;5054000;28;20071;-74
2021/05/29 01:03:43;;;;;;;5.65;3.45;;;9.10;99.90;;;;;;5035868;28;20022;-73
2021/05/29 01:06:10;;;;;;;6.30;3.60;;;9.00;99.90;;;;;;5050170;28;20037;-73
2021/05/29 01:08:36;;;;;;;4.10;3.70;;;8.90;99.90;;;;;;5054556;28;20386;-74
2021/05/29 01:11:02;;;;;;;9.75;7.93;;;8.80;99.90;;;;;;5055366;28;20379;-74
2021/05/29 01:13:32;;;;;;;18.52;14.45;;;8.70;99.90;;;;;;5042387;28;20426;-74
2021/05/29 01:16:08;;;;;;;13.75;8.32;;;8.60;99.90;;;;;;5051715;28;20040;-74
2021/05/29 01:18:34;;;;;;;7.70;5.22;;;8.60;99.90;;;;;;5041536;28;20451;-75
2021/05/29 01:21:02;;;;;;;5.30;4.15;;;8.70;99.90;;;;;;5035766;28;20048;-74
2021/05/29 01:23:28;;;;;;;4.63;3.58;;;8.70;99.90;;;;;;5053849;28;20032;-74
2021/05/29 01:25:54;;;;;;;5.35;4.05;;;8.70;99.90;;;;;;5053314;28;20048;-74
2021/05/29 01:28:25;;;;;;;6.25;3.80;;;8.70;99.90;;;;;;5043647;28;20029;-74
2021/05/29 01:31:00;;;;;;;5.30;3.90;;;8.70;99.90;;;;;;5042688;28;20386;-74
2021/05/29 01:33:31;;;;;;;4.75;3.75;;;8.50;99.90;;;;;;5056666;28;20051;-75
2021/05/29 01:36:05;;;;;;;4.35;3.67;;;8.40;99.90;;;;;;5043703;28;20383;-74
2021/05/29 01:38:33;;;;;;;4.80;3.55;;;8.30;99.90;;;;;;5035271;28;20371;-74
2021/05/29 01:41:07;;;;;;;9.27;3.83;;;8.20;99.90;;;;;;5047078;28;20382;-74
2021/05/29 01:43:38;;;;;;;7.22;4.20;;;8.10;99.90;;;;;;5035380;28;20029;-86
2021/05/29 01:46:05;;;;;;;6.25;4.07;;;8.10;99.90;;;;;;5018475;28;20054;-74
2021/05/29 01:48:41;;;;;;;6.57;4.60;;;8.00;99.90;;;;;;5042322;28;20047;-74
2021/05/29 01:51:09;;;;;;;7.18;5.13;;;7.90;99.90;;;;;;5055180;28;20033;-74
2021/05/29 01:53:36;;;;;;;7.18;5.07;;;7.90;99.90;;;;;;5054688;28;20056;-74
2021/05/29 01:56:04;;;;;;;5.80;4.80;;;8.00;99.90;;;;;;5035969;28;20060;-74
2021/05/29 01:58:31;;;;;;;5.90;4.38;;;8.10;99.90;;;;;;5024027;28;20506;-74
2021/05/29 02:00:57;;;;;;;7.18;4.50;;;8.10;99.90;;;;;;5048403;28;20048;-80
2021/05/29 02:03:23;;;;;;;5.90;4.97;;;8.10;99.90;;;;;;5041538;28;20029;-74
2021/05/29 02:05:50;;;;;;;7.20;4.50;;;8.10;99.90;;;;;;5050521;28;20048;-74
2021/05/29 02:08:16;;;;;;;4.90;4.20;;;7.90;99.90;;;;;;5054521;28;20029;-74
2021/05/29 02:10:45;;;;;;;7.38;3.75;;;7.80;99.90;;;;;;5053580;28;20048;-74
2021/05/29 02:13:22;;;;;;;5.75;3.65;;;7.80;99.90;;;;;;5066510;28;20037;-74
2021/05/29 02:15:49;;;;;;;5.20;4.18;;;7.80;99.90;;;;;;5062148;28;20030;-78
2021/05/29 02:18:15;;;;;;;6.68;4.13;;;7.70;99.90;;;;;;5067441;28;20025;-74
2021/05/29 02:20:50;;;;;;;5.50;4.30;;;7.60;99.90;;;;;;5042774;28;20313;-74
2021/05/29 02:23:35;;;;;;;8.93;4.68;;;7.60;99.90;;;;;;5034596;28;20036;-74
2021/05/29 02:26:07;;;;;;;5.45;4.82;;;7.70;99.90;;;;;;5047522;28;20060;-74
2021/05/29 02:28:35;;;;;;;6.10;5.00;;;7.60;99.90;;;;;;5034503;28;20026;-73
2021/05/29 02:31:03;;;;;;;7.40;4.93;;;7.60;99.90;;;;;;5050338;28;20501;-73
2021/05/29 02:33:29;;;;;;;6.97;5.20;;;7.50;99.90;;;;;;5053502;28;20048;-73
2021/05/29 02:35:57;;;;;;;7.07;4.60;;;7.50;99.90;;;;;;5009776;28;20520;-73
2021/05/29 02:38:26;;;;;;;5.78;4.35;;;7.50;99.90;;;;;;5052580;28;20029;-74
2021/05/29 02:40:52;;;;;;;7.72;4.47;;;7.40;99.90;;;;;;5049951;28;20028;-74
2021/05/29 02:43:19;;;;;;;9.73;7.63;;;7.40;99.90;;;;;;5034404;28;20025;-73
2021/05/29 02:45:45;;;;;;;8.18;6.20;;;7.40;99.90;;;;;;5033690;28;20042;-74
2021/05/29 02:48:13;;;;;;;5.78;4.50;;;7.30;99.90;;;;;;5033861;28;20041;-74
2021/05/29 02:50:40;;;;;;;6.68;4.60;;;7.30;99.90;;;;;;5033771;28;20032;-74
2021/05/29 02:53:09;;;;;;;5.93;4.57;;;7.30;99.90;;;;;;5034155;28;20053;-74
2021/05/29 02:55:35;;;;;;;7.13;4.95;;;7.30;99.90;;;;;;5039962;28;20033;-78
2021/05/29 02:58:02;;;;;;;7.18;4.85;;;7.10;99.90;;;;;;5022653;28;20450;-74
2021/05/29 03:00:39;;;;;;;6.70;4.97;;;7.00;99.90;;;;;;5052115;28;20025;-74
2021/05/29 03:03:09;;;;;;;7.65;5.68;;;6.90;99.90;;;;;;5044869;28;20467;-74
2021/05/29 03:05:37;;;;;;;9.38;5.53;;;6.90;99.90;;;;;;5047130;28;20466;-78
2021/05/29 03:08:04;;;;;;;7.72;5.82;;;6.90;99.90;;;;;;5053507;28;20025;-74
2021/05/29 03:10:31;;;;;;;8.32;5.75;;;6.90;99.90;;;;;;5033689;28;20045;-75
2021/05/29 03:12:58;;;;;;;8.23;5.57;;;6.90;99.90;;;;;;5034595;28;20052;-74
2021/05/29 03:15:25;;;;;;;10.98;5.90;;;7.00;99.90;;;;;;5035785;28;20420;-74
2021/05/29 03:17:53;;;;;;;7.45;5.85;;;6.90;99.90;;;;;;5047806;28;20045;-74
2021/05/29 03:20:22;;;;;;;8.80;5.97;;;6.90;99.90;;;;;;5040603;28;20029;-75
2021/05/29 03:22:48;;;;;;;7.22;5.55;;;7.00;99.90;;;;;;5033281;28;20053;-74
2021/05/29 03:25:16;;;;;;;9.57;5.78;;;6.90;99.90;;;;;;5034477;28;20482;-74
2021/05/29 03:27:43;;;;;;;6.93;5.13;;;6.80;99.90;;;;;;5034898;28;20487;-75
2021/05/29 03:30:12;;;;;;;7.28;5.72;;;6.80;99.90;;;;;;5037137;28;20391;-75
2021/05/29 03:32:38;;;;;;;6.57;5.22;;;6.70;99.90;;;;;;5033888;28;20482;-75
2021/05/29 03:35:08;;;;;;;9.38;5.75;;;6.60;99.90;;;;;;5034619;28;20041;-75
2021/05/29 03:37:35;;;;;;;9.25;5.85;;;6.70;99.90;;;;;;5038887;28;20040;-75
2021/05/29 03:40:02;;;;;;;8.75;6.45;;;6.70;99.90;;;;;;5053188;28;20044;-74
2021/05/29 03:42:28;;;;;;;8.20;6.65;;;6.80;99.90;;;;;;5053484;28;20485;-81
2021/05/29 03:44:55;;;;;;;9.77;6.40;;;6.90;99.90;;;;;;5043549;28;20045;-74
2021/05/29 03:47:21;;;;;;;10.23;5.88;;;6.90;99.90;;;;;;5034938;28;20041;-75
2021/05/29 03:49:47;;;;;;;7.18;5.50;;;6.90;99.90;;;;;;5043031;28;20017;-74
2021/05/29 03:52:13;;;;;;;11.32;6.47;;;6.90;99.90;;;;;;5034565;28;20033;-74
2021/05/29 03:54:39;;;;;;;8.00;6.07;;;6.90;99.90;;;;;;5034660;28;20037;-75
2021/05/29 03:57:06;;;;;;;8.50;6.53;;;7.00;99.90;;;;;;5046458;28;20037;-74
2021/05/29 03:59:32;;;;;;;6.43;5.32;;;7.10;99.90;;;;;;5041592;28;20379;-74
2021/05/29 04:01:59;;;;;;;6.97;5.75;;;7.10;99.90;;;;;;5052890;28;20033;-74
2021/05/29 04:04:25;;;;;;;12.05;6.38;;;7.10;99.90;;;;;;5035798;28;20032;-74
2021/05/29 04:06:51;;;;;;;8.63;6.18;;;7.10;99.90;;;;;;5052755;28;20029;-74
2021/05/29 04:09:17;;;;;;;9.43;5.43;;;7.10;99.90;;;;;;5036135;28;20029;-75
2021/05/29 04:11:44;;;;;;;6.88;5.40;;;7.10;99.90;;;;;;5038132;28;20374;-74
2021/05/29 04:14:10;;;;;;;10.63;6.20;;;7.10;99.90;;;;;;5051047;28;20051;-74
2021/05/29 04:16:36;;;;;;;6.78;4.78;;;7.20;99.90;;;;;;5033786;28;20044;-74
2021/05/29 04:19:03;;;;;;;6.35;4.70;;;7.20;99.90;;;;;;5050807;28;20033;-74
2021/05/29 04:21:29;;;;;;;6.95;4.53;;;7.20;99.90;;;;;;5017837;28;20033;-74
2021/05/29 04:23:56;;;;;;;4.93;4.07;;;7.50;99.90;;;;;;5045998;28;20025;-74
2021/05/29 04:26:22;;;;;;;5.18;4.38;;;8.40;99.90;;;;;;5052119;28;20426;-75
2021/05/29 04:28:50;;;;;;;4.85;3.35;;;8.80;99.90;;;;;;5038351;28;20455;-75
2021/05/29 04:31:18;;;;;;;5.57;3.60;;;9.30;99.90;;;;;;5047399;28;20041;-76
2021/05/29 04:33:44;;;;;;;6.88;3.13;;;10.30;99.90;;;;;;5034004;28;20038;-75
2021/05/29 04:36:11;;;;;;;4.65;2.70;;;11.20;99.90;;;;;;5029563;28;20048;-75
2021/05/29 04:38:37;;;;;;;5.15;2.88;;;12.00;97.50;;;;;;5017147;28;20048;-76
2021/05/29 04:41:03;;;;;;;4.30;2.70;;;12.80;93.10;;;;;;5028318;28;20046;-75
2021/05/29 04:43:30;;;;;;;3.65;2.85;;;13.30;90.10;;;;;;5036722;28;20037;-76
2021/05/29 04:45:56;;;;;;;3.70;2.70;;;13.10;87.60;;;;;;5035902;28;20037;-76
2021/05/29 04:48:22;;;;;;;4.95;2.50;;;12.60;89.20;;;;;;5029859;28;20399;-75
2021/05/29 04:53:33;;;;;;;3.95;3.33;;;13.00;89.10;;;;;;5036108;28;20036;-76
2021/05/29 04:56:01;;;;;;;7.18;3.17;;;13.10;88.20;;;;;;5036081;28;20040;-76
2021/05/29 04:58:28;;;;;;;5.80;3.22;;;13.00;88.70;;;;;;5022496;28;20030;-75
2021/05/29 05:00:54;;;;;;;4.40;3.30;;;13.20;87.70;;;;;;5032989;28;20462;-76
2021/05/29 05:03:21;;;;;;;5.53;3.58;;;12.90;89.10;;;;;;5034838;28;20029;-80
2021/05/29 05:05:48;;;;;;;5.70;3.45;;;12.90;90.00;;;;;;5036637;28;20379;-76
2021/05/29 05:08:14;;;;;;;5.20;2.80;;;13.10;88.60;;;;;;5036966;28;20036;-76
2021/05/29 05:10:41;;;;;;;5.68;3.22;;;12.90;88.50;;;;;;5035431;28;20503;-77
2021/05/29 05:13:07;;;;;;;3.95;2.83;;;12.60;90.60;;;;;;5018268;28;20121;-76
2021/05/29 05:15:33;;;;;;;4.10;2.90;;;12.60;90.80;;;;;;5017190;28;20044;-76
2021/05/29 05:17:59;;;;;;;3.30;2.75;;;12.80;90.80;;;;;;5025414;28;20040;-77
2021/05/29 05:20:26;;;;;;;4.78;3.30;;;13.20;88.70;;;;;;5021094;28;20040;-76
2021/05/29 05:22:52;;;;;;;5.20;3.35;;;13.40;89.30;;;;;;5017267;28;20042;-77
2021/05/29 05:25:18;;;;;;;5.47;3.05;;;13.40;87.10;;;;;;5035488;28;20028;-77
2021/05/29 05:27:45;;;;;;;4.60;2.90;;;13.40;86.80;;;;;;5026554;28;20030;-77
2021/05/29 05:30:14;;;;;;;5.63;2.75;;;13.30;87.50;;;;;;5022177;28;20033;-77
2021/05/29 05:32:42;;;;;;;9.10;3.00;;;13.80;84.30;;;;;;5039475;28;20375;-77
2021/05/29 05:35:10;;;;;;;7.60;2.85;;;13.80;84.50;;;;;;5056283;28;20041;-77
2021/05/29 05:37:37;;;;;;;3.47;2.33;;;14.10;84.50;;;;;;5055239;28;20036;-77
2021/05/29 05:40:07;;;;;;;6.90;2.90;;;14.70;81.70;;;;;;5021725;28;20029;-76
2021/05/29 05:42:33;;;;;;;5.85;2.35;;;15.60;78.00;;;;;;5054218;28;20028;-78
2021/05/29 05:45:00;;;;;;;5.10;2.72;;;15.30;77.40;;;;;;5035919;28;20049;-76
2021/05/29 05:47:26;;;;;;;4.28;2.65;;;14.90;78.80;;;;;;5045005;28;20029;-76
2021/05/29 05:49:52;;;;;;;3.30;2.55;;;14.80;78.90;;;;;;5069593;28;20021;-76
2021/05/29 05:52:18;;;;;;;5.18;2.38;;;15.00;78.00;;;;;;5065342;28;20041;-74
2021/05/29 05:54:45;;;;;;;3.15;2.42;;;15.10;78.10;;;;;;5035564;28;20032;-74
2021/05/29 05:57:11;;;;;;;5.03;2.40;;;15.30;76.50;;;;;;5043986;28;20037;-74
2021/05/29 05:59:37;;;;;;;4.30;2.22;;;15.50;75.50;;;;;;5043259;28;20458;-75
2021/05/29 06:02:04;;;;;;;7.03;2.30;;;15.80;74.50;;;;;;5054102;28;20028;-75
2021/05/29 06:04:30;;;;;;;2.80;2.22;;;16.00;73.30;;;;;;5043237;28;20494;-75
2021/05/29 06:06:56;;;;;;;2.92;2.00;;;15.70;74.10;;;;;;5051555;28;20032;-75
2021/05/29 06:09:22;;;;;;;4.70;2.60;;;15.70;74.20;;;;;;5022558;28;20036;-76
2021/05/29 06:11:48;;;;;;;3.03;2.03;;;16.00;72.50;;;;;;5006607;28;20042;-75
2021/05/29 06:20:09;;;;;;;4.78;2.00;;;16.60;69.60;;;;;;5044217;28;20041;-76
2021/05/29 06:22:35;;;;;;;4.60;2.25;;;17.10;67.70;;;;;;5051832;28;20033;-76
2021/05/29 06:25:02;;;;;;;2.08;1.70;;;16.50;67.50;;;;;;5042787;28;20037;-75
2021/05/29 06:27:28;;;;;;;3.60;2.22;;;16.70;67.50;;;;;;5047510;28;20060;-76
2021/05/29 06:29:54;;;;;;;4.28;1.90;;;16.00;68.50;;;;;;5051743;28;20040;-75
2021/05/29 06:32:20;;;;;;;4.78;1.50;;;16.10;69.10;;;;;;5053108;28;20025;-76
2021/05/29 06:34:47;;;;;;;3.17;1.60;;;17.00;66.30;;;;;;5040429;28;20029;-78
2021/05/29 06:37:13;;;;;;;3.47;1.67;;;16.30;66.80;;;;;;5040576;28;20486;-75
2021/05/29 06:39:39;;;;;;;2.40;1.40;;;16.40;67.10;;;;;;5047490;28;20029;-75
2021/05/29 06:42:08;;;;;;;2.58;1.67;;;17.10;65.40;;;;;;5053037;28;20033;-76
2021/05/29 06:44:34;;;;;;;4.18;1.50;;;16.80;65.40;;;;;;5034004;28;20048;-75
2021/05/29 06:47:01;;;;;;;1.77;1.42;;;17.00;65.30;;;;;;5033432;28;20148;-76
2021/05/29 06:49:27;;;;;;;2.78;1.50;;;17.00;64.80;;;;;;5044808;28;20293;-75
2021/05/29 06:52:06;;;;;;;2.63;1.40;;;17.20;64.70;;;;;;5052332;28;20041;-75
2021/05/29 06:59:53;;;;;;;2.17;1.35;;;17.70;60.30;;;;;;5033244;28;20045;-77
2021/05/29 07:02:19;;;;;;;3.10;1.45;;;17.80;59.50;;;;;;5043116;28;20463;-75
2021/05/29 07:04:45;;;;;;;2.03;1.27;;;17.40;60.50;;;;;;5050111;28;20359;-75
2021/05/29 07:07:12;;;;;;;1.50;1.00;;;17.30;60.10;;;;;;5037874;28;20037;-75
2021/05/29 07:09:38;;;;;;;2.10;1.30;;;17.40;59.60;;;;;;5045363;28;20033;-75
2021/05/29 07:12:04;;;;;;;3.28;1.08;;;17.10;60.10;;;;;;5051261;28;20040;-75
2021/05/29 07:14:30;;;;;;;2.03;1.27;;;17.30;60.80;;;;;;5052299;28;20036;-75
2021/05/29 07:16:57;;;;;;;3.55;1.38;;;18.10;60.20;;;;;;5052333;28;20359;-75
2021/05/29 07:19:25;;;;;;;3.42;1.52;;;18.70;58.90;;;;;;5052005;28;20505;-77
2021/05/29 07:21:51;;;;;;;3.70;1.10;;;18.40;58.60;;;;;;5052319;28;20048;-75
2021/05/29 07:24:19;;;;;;;2.70;0.90;;;18.00;59.00;;;;;;5044713;28;20092;-75
2021/05/29 07:26:47;;;;;;;1.85;1.30;;;18.00;58.50;;;;;;5041382;28;20057;-76
2021/05/29 07:29:14;;;;;;;2.22;1.00;;;17.70;57.90;;;;;;5034186;28;20044;-77
2021/05/29 07:31:41;;;;;;;2.28;1.00;;;17.50;59.00;;;;;;5033623;28;20379;-76
2021/05/29 07:34:07;;;;;;;1.33;0.70;;;18.00;58.20;;;;;;5033870;28;20056;-75
2021/05/29 07:36:34;;;;;;;1.77;1.02;;;18.60;58.30;;;;;;5039043;28;20041;-79
2021/05/29 07:39:00;;;;;;;1.23;1.00;;;19.20;57.20;;;;;;5052452;28;20033;-77
2021/05/29 07:41:27;;;;;;;5.55;1.08;;;19.60;55.50;;;;;;5050886;28;20040;-76
2021/05/29 07:43:53;;;;;;;3.03;1.10;;;19.10;56.20;;;;;;5032928;28;20033;-74
2021/05/29 07:46:20;;;;;;;2.20;0.98;;;19.30;56.10;;;;;;5032205;28;20037;-75
2021/05/29 07:48:46;;;;;;;2.15;1.10;;;20.10;55.00;;;;;;5040739;28;20324;-76
2021/05/29 07:51:15;;;;;;;2.80;1.02;;;18.70;56.90;;;;;;5040651;28;20033;-79
2021/05/29 07:53:42;;;;;;;2.33;1.10;;;18.40;58.00;;;;;;5033671;28;20050;-74
2021/05/29 07:56:11;;;;;;;1.17;0.80;;;18.30;59.00;;;;;;5051177;28;20033;-74
2021/05/29 07:58:41;;;;;;;2.43;0.97;;;19.00;56.10;;;;;;5051598;28;20032;-74
2021/05/29 08:01:11;;;;;;;2.67;1.00;;;19.30;56.30;;;;;;5040647;28;20284;-76
2021/05/29 08:03:37;;;;;;;2.75;1.02;;;19.40;56.00;;;;;;5043964;28;20502;-74
2021/05/29 08:06:09;;;;;;;2.40;1.02;;;19.70;55.90;;;;;;5042066;28;20037;-73
2021/05/29 08:08:35;;;;;;;1.83;0.70;;;20.80;53.70;;;;;;5032692;28;20045;-74
2021/05/29 08:11:03;;;;;;;1.75;0.70;;;20.70;53.20;;;;;;5033706;28;20029;-75
2021/05/29 08:13:31;;;;;;;1.65;1.00;;;20.40;53.50;;;;;;5041953;28;20035;-77
2021/05/29 08:15:57;;;;;;;1.25;0.70;;;20.00;54.80;;;;;;5038136;28;20390;-76
2021/05/29 08:18:24;;;;;;;1.27;0.77;;;19.50;55.30;;;;;;5043263;28;20493;-79
2021/05/29 08:20:51;;;;;;;1.83;0.98;;;19.70;54.30;;;;;;5050560;28;20041;-74
2021/05/29 08:23:18;;;;;;;2.22;0.55;;;19.40;55.40;;;;;;5043379;28;20471;-75
2021/05/29 08:25:45;;;;;;;1.70;0.82;;;19.20;56.70;;;;;;5049402;28;20033;-79
2021/05/29 08:28:11;;;;;;;1.77;0.90;;;19.50;55.90;;;;;;5049558;28;20049;-76
2021/05/29 08:30:38;;;;;;;3.30;0.90;;;19.20;54.80;;;;;;5050606;28;20045;-76
2021/05/29 08:33:05;;;;;;;2.17;0.82;;;19.20;54.90;;;;;;5044650;28;20060;-76
2021/05/29 08:35:32;;;;;;;2.75;1.05;;;19.90;54.20;;;;;;5045057;28;20028;-78
2021/05/29 08:37:58;;;;;;;2.72;0.90;;;19.80;54.80;;;;;;5050863;28;20037;-81
2021/05/29 08:40:25;;;;;;;1.65;0.80;;;18.40;55.30;;;;;;5050737;28;20426;-77
2021/05/29 08:42:51;;;;;;;2.00;1.13;;;18.50;56.00;;;;;;5037162;28;20040;-75
2021/05/29 08:45:18;;;;;;;0.73;0.57;;;18.00;57.20;;;;;;5045807;28;20029;-81
2021/05/29 08:47:48;;;;;;;1.67;1.00;;;17.40;58.30;;;;;;5037731;28;20046;-77
2021/05/29 08:50:16;;;;;;;5.03;0.98;;;18.00;57.80;;;;;;5043189;28;20383;-76
2021/05/29 08:52:43;;;;;;;1.75;0.95;;;18.70;55.10;;;;;;5042958;28;20033;-76
2021/05/29 08:55:14;;;;;;;1.77;0.90;;;18.40;55.50;;;;;;5032874;28;20025;-75
2021/05/29 08:57:41;;;;;;;1.30;0.55;;;17.70;56.90;;;;;;5031395;28;20044;-76
2021/05/29 09:00:10;;;;;;;1.20;0.80;;;17.90;54.70;;;;;;5031003;28;20041;-75
2021/05/29 09:03:07;;;;;;;1.65;0.80;;;19.30;53.70;;;;;;5032477;28;20038;-75
2021/05/29 09:05:35;;;;;;;1.13;0.50;;;20.00;52.30;;;;;;5023483;28;20041;-74
2021/05/29 09:08:12;;;;;;;1.15;0.50;;;20.40;48.10;;;;;;5035242;28;20391;-74
2021/05/29 09:10:48;;;;;;;1.60;0.70;;;22.00;45.60;;;;;;5041494;28;20037;-74
2021/05/29 09:13:20;;;;;;;1.00;0.60;;;22.00;46.70;;;;;;5040199;28;20040;-74
2021/05/29 09:16:01;;;;;;;1.50;0.52;;;20.50;47.40;;;;;;5037112;28;20036;-77
2021/05/29 09:18:34;;;;;;;2.70;0.70;;;20.50;48.60;;;;;;5046048;28;20059;-76
2021/05/29 09:21:20;;;;;;;0.82;0.60;;;20.20;49.10;;;;;;5041267;28;20468;-76
2021/05/29 09:24:12;;;;;;;3.05;0.80;;;20.40;48.70;;;;;;5047878;28;20048;-77
2021/05/29 09:26:43;;;;;;;1.58;0.70;;;20.30;48.40;;;;;;5034860;28;20037;-78
2021/05/29 09:29:24;;;;;;;1.17;0.60;;;19.20;49.70;;;;;;5039997;28;20025;-76
2021/05/29 09:32:03;;;;;;;1.70;0.68;;;19.40;50.00;;;;;;5041726;28;20026;-77
2021/05/29 09:34:42;;;;;;;1.52;0.70;;;20.40;47.90;;;;;;5067691;28;20040;-76
2021/05/29 09:37:27;;;;;;;2.33;0.47;;;20.80;46.80;;;;;;5053273;28;20049;-75
2021/05/29 09:39:56;;;;;;;1.83;0.52;;;19.60;47.10;;;;;;5051242;28;20036;-79
2021/05/29 09:42:43;;;;;;;1.67;0.57;;;19.90;46.90;;;;;;5040814;28;20048;-75
2021/05/29 09:45:27;;;;;;;1.17;0.50;;;20.70;45.50;;;;;;5036148;28;20045;-75
2021/05/29 09:48:17;;;;;;;1.55;0.50;;;21.10;43.80;;;;;;5052928;28;20060;-74
2021/05/29 09:51:15;;;;;;;1.97;0.63;;;20.50;45.90;;;;;;5053661;28;20040;-74
2021/05/29 09:53:47;;;;;;;3.28;0.60;;;19.20;49.10;;;;;;5009480;28;20040;-75
2021/05/29 09:56:34;;;;;;;1.10;0.57;;;19.70;47.80;;;;;;5038312;28;20040;-75
2021/05/29 09:59:05;;;;;;;0.82;0.60;;;20.40;47.40;;;;;;5050054;28;20057;-74
2021/05/29 10:01:34;;;;;;;2.63;0.70;;;20.10;47.90;;;;;;5053290;28;20484;-76
2021/05/29 10:04:02;;;;;;;1.13;0.63;;;18.90;49.40;;;;;;5040871;28;20386;-75
2021/05/29 10:06:28;;;;;;;0.80;0.50;;;18.80;49.00;;;;;;5038853;28;20036;-75
2021/05/29 10:08:55;;;;;;;2.63;0.65;;;20.00;47.80;;;;;;5046199;28;20052;-75
2021/05/29 10:11:22;;;;;;;1.02;0.50;;;20.00;47.20;;;;;;5043658;28;20029;-75
2021/05/29 10:13:48;;;;;;;1.63;0.50;;;19.10;48.50;;;;;;5044825;28;20032;-76
2021/05/29 10:16:15;;;;;;;1.30;0.50;;;18.60;49.60;;;;;;5053348;28;20418;-75
2021/05/29 10:18:50;;;;;;;1.10;0.45;;;18.70;50.30;;;;;;5053540;28;20033;-75
2021/05/29 10:21:18;;;;;;;1.15;0.50;;;19.90;48.50;;;;;;5053521;28;20107;-76
2021/05/29 10:23:46;;;;;;;1.42;0.40;;;20.00;48.10;;;;;;5053354;28;20060;-79
2021/05/29 10:26:15;;;;;;;1.20;0.60;;;19.30;47.60;;;;;;5017040;28;20387;-76
2021/05/29 10:28:44;;;;;;;1.60;0.70;;;18.60;48.80;;;;;;5051080;28;20394;-76
2021/05/29 10:31:11;;;;;;;2.97;2.55;;;18.50;50.10;;;;;;5043463;28;20037;-75
2021/05/29 10:33:42;;;;;;;4.22;0.70;;;18.90;49.10;;;;;;5043343;28;20053;-75
2021/05/29 10:36:09;;;;;;;1.05;0.70;;;19.10;50.10;;;;;;5034334;28;20035;-75
2021/05/29 10:38:45;;;;;;;1.38;0.80;;;19.40;48.50;;;;;;5040459;28;20078;-75
2021/05/29 10:41:11;;;;;;;0.77;0.40;;;18.60;49.40;;;;;;5051040;28;20052;-77
2021/05/29 10:43:38;;;;;;;0.95;0.52;;;18.60;48.20;;;;;;5049924;28;20029;-75
2021/05/29 10:46:08;;;;;;;3.08;2.88;;;18.90;49.00;;;;;;5038268;28;20045;-74
2021/05/29 10:48:54;;;;;;;1.77;0.75;;;19.50;48.70;;;;;;5052992;28;20041;-74
2021/05/29 10:51:35;;;;;;;1.52;0.65;;;19.20;47.90;;;;;;5032001;28;20044;-75
2021/05/29 10:54:12;;;;;;;1.00;0.68;;;18.60;48.60;;;;;;5032933;28;20042;-75
2021/05/29 10:56:38;;;;;;;1.17;0.40;;;18.40;48.70;;;;;;5052795;28;20044;-74
2021/05/29 10:59:19;;;;;;;1.40;0.55;;;18.80;47.90;;;;;;5051750;28;20052;-73
2021/05/29 11:01:45;;;;;;;0.60;0.50;;;19.00;47.90;;;;;;5052747;28;20039;-73
2021/05/29 11:04:14;;;;;;;0.70;0.50;;;18.90;48.10;;;;;;5051847;28;20029;-73
2021/05/29 11:06:48;;;;;;;1.38;0.55;;;18.70;47.60;;;;;;5037057;28;20036;-74
2021/05/29 11:09:29;;;;;;;2.25;0.70;;;19.10;48.30;;;;;;5045918;28;20055;-74
2021/05/29 11:12:03;;;;;;;0.77;0.40;;;19.40;47.90;;;;;;5041262;28;20044;-74
2021/05/29 11:14:49;;;;;;;1.35;0.60;;;19.30;48.30;;;;;;5052923;28;20032;-74
2021/05/29 11:17:17;;;;;;;1.10;0.60;;;19.30;48.00;;;;;;5044795;28;20036;-74
2021/05/29 11:20:07;;;;;;;1.52;0.60;;;19.50;48.20;;;;;;5043963;28;20459;-74
2021/05/29 11:22:44;;;;;;;0.98;0.43;;;19.40;47.40;;;;;;5038431;28;20084;-73
2021/05/29 11:25:13;;;;;;;0.75;0.40;;;19.50;47.10;;;;;;5032824;28;20041;-73
2021/05/29 11:27:40;;;;;;;1.40;1.00;;;19.60;45.20;;;;;;5045547;28;20053;-73
2021/05/29 11:30:13;;;;;;;1.92;0.60;;;19.60;46.50;;;;;;5050153;28;20037;-75
2021/05/29 11:35:33;;;;;;;2.58;0.88;;;19.80;45.80;;;;;;5035844;28;20037;-74
2021/05/29 11:38:14;;;;;;;1.13;0.60;;;19.70;47.60;;;;;;5051789;28;20039;-74
2021/05/29 11:40:44;;;;;;;1.38;0.50;;;20.40;47.10;;;;;;5039679;28;20056;-75
2021/05/29 11:43:12;;;;;;;1.05;0.40;;;19.60;46.50;;;;;;5038729;28;20374;-73
2021/05/29 11:45:39;;;;;;;1.85;0.73;;;19.80;45.90;;;;;;5051934;28;20041;-74
2021/05/29 11:48:06;;;;;;;2.15;0.80;;;19.90;46.90;;;;;;5034463;28;20057;-74
2021/05/29 11:50:34;;;;;;;1.13;0.40;;;19.20;46.30;;;;;;5050186;28;20040;-73
2021/05/29 11:53:00;;;;;;;2.25;0.40;;;19.30;46.30;;;;;;5035999;28;20041;-74
2021/05/29 11:55:26;;;;;;;2.17;1.05;;;19.40;46.10;;;;;;5046670;28;20036;-73
2021/05/29 11:58:01;;;;;;;1.55;0.80;;;19.50;46.60;;;;;;5051212;28;20040;-75
2021/05/29 12:00:28;;;;;;;2.33;0.52;;;19.90;46.60;;;;;;5036390;28;20033;-74
2021/05/29 12:02:55;;;;;;;0.70;0.40;;;20.00;46.90;;;;;;5042046;28;20052;-74
2021/05/29 12:05:23;;;;;;;2.08;0.68;;;20.10;46.60;;;;;;5051579;28;20466;-74
2021/05/29 12:08:06;;;;;;;1.05;0.50;;;19.60;46.10;;;;;;5040508;28;20042;-74
2021/05/29 12:10:48;;;;;;;2.00;0.60;;;19.60;46.80;;;;;;5051641;28;20037;-74
2021/05/29 12:13:29;;;;;;;1.27;0.38;;;19.50;47.40;;;;;;5034371;28;20063;-74
2021/05/29 12:15:59;;;;;;;;;;;19.30;46.90;;;;;;5051372;28;20036;-74
2021/05/29 12:18:36;;;;;;;0.65;0.47;;;19.10;46.50;;;;;;5050111;28;19919;-74
2021/05/29 12:21:05;;;;;;;0.85;0.50;;;19.10;46.60;;;;;;5050886;28;20490;-74
2021/05/29 12:23:31;;;;;;;3.33;0.60;;;19.40;47.00;;;;;;5051380;28;20029;-74
2021/05/29 12:25:57;;;;;;;0.90;0.50;;;19.90;46.10;;;;;;5051285;28;20462;-76
2021/05/29 12:28:24;;;;;;;2.95;0.38;;;20.10;44.40;;;;;;5050026;28;20033;-73
2021/05/29 12:30:53;;;;;;;1.52;0.50;;;20.50;43.30;;;;;;5051578;28;20048;-74
2021/05/29 12:33:24;;;;;;;0.82;0.50;;;20.90;43.30;;;;;;5052438;28;20045;-76
2021/05/29 12:36:08;;;;;;;1.08;0.57;;;20.70;43.50;;;;;;5050297;28;20095;-81
2021/05/29 12:38:34;;;;;;;1.23;0.43;;;20.20;44.70;;;;;;5033981;28;20133;-73
2021/05/29 12:41:11;;;;;;;1.20;0.40;;;19.60;45.70;;;;;;5049371;28;20033;-74
2021/05/29 12:43:40;;;;;;;0.55;0.40;;;19.40;45.70;;;;;;5051651;28;20032;-73
2021/05/29 12:46:20;;;;;;;2.15;0.50;;;19.60;46.50;;;;;;5050554;28;20040;-73
2021/05/29 12:49:04;;;;;;;1.25;0.63;;;19.50;45.60;;;;;;5049867;28;20360;-75
2021/05/29 12:51:44;;;;;;;0.88;0.40;;;19.30;46.70;;;;;;5051058;28;20036;-73
2021/05/29 12:54:12;;;;;;;1.70;0.73;;;19.20;46.30;;;;;;5049716;28;20366;-73
2021/05/29 12:56:55;;;;;;;1.63;0.50;;;19.10;46.40;;;;;;5054771;28;20455;-77
2021/05/29 12:59:24;;;;;;;2.17;0.45;;;19.20;45.30;;;;;;5055028;28;20033;-73
2021/05/29 13:07:29;;;;;;;2.28;0.52;;;20.40;44.80;;;;;;5048412;28;20035;-74
2021/05/29 13:12:37;;;;;;;0.98;0.40;;;20.30;44.00;;;;;;5054828;28;20378;-74
2021/05/29 13:15:17;;;;;;;2.05;0.63;;;20.00;44.40;;;;;;5036065;28;20040;-74
2021/05/29 13:17:43;;;;;;;0.93;0.60;;;19.40;44.40;;;;;;5054298;28;20041;-74
2021/05/29 13:20:17;;;;;;;0.80;0.60;;;19.20;45.70;;;;;;5060980;28;20490;-73
2021/05/29 13:22:44;;;;;;;1.25;0.60;;;19.20;45.30;;;;;;5070929;28;20055;-73
2021/05/29 13:25:16;;;;;;;0.82;0.45;;;19.50;45.60;;;;;;5069478;28;20489;-74